Time;durP1;ratioP1;P1;durP2;ratioP2;P2;SDS_P1;SDS_P2;PMS_P1;PMS_P2;Temp;Humidity;BMP_temperature;BMP_pressure;BME280_temperature;BME280_humidity;BME280_pressure;Samples;Min_cycle;Max_cycle;Signal;HPM_P1;HPM_P2
2022/04/10 00:00:56;;;;;;;13.60;4.10;;;;;;;23.45;44.77;93925.09;6146747;28;102761;-76
2022/04/10 00:03:58;;;;;;;8.60;3.30;;;;;;;23.43;45.14;93927.34;6161570;28;103132;-76
2022/04/10 00:07:00;;;;;;;8.00;3.50;;;;;;;23.43;44.88;93928.09;6164845;28;102716;-77
2022/04/10 00:10:03;;;;;;;7.80;3.30;;;;;;;23.37;44.86;93915.34;6164107;28;103310;-77
2022/04/10 00:13:05;;;;;;;7.87;3.30;;;;;;;23.42;44.80;93915.09;6147623;28;102742;-76
2022/04/10 00:16:08;;;;;;;10.20;3.27;;;;;;;23.44;44.80;93915.53;6159127;28;102719;-76
2022/04/10 00:19:10;;;;;;;8.43;3.47;;;;;;;23.44;45.33;93892.28;6136344;28;102911;-77
2022/04/10 00:22:12;;;;;;;7.33;3.27;;;;;;;23.45;44.61;93893.06;6140637;28;103932;-76
2022/04/10 00:25:17;;;;;;;9.97;3.30;;;;;;;23.46;45.35;93895.38;6152304;28;102932;-75
2022/04/10 00:28:19;;;;;;;7.90;2.70;;;;;;;23.41;45.42;93886.84;6163011;28;104540;-75
2022/04/10 00:31:21;;;;;;;6.83;2.90;;;;;;;23.39;45.15;93868.50;6145945;28;103086;-76
2022/04/10 00:34:23;;;;;;;8.73;3.10;;;;;;;23.36;45.40;93887.13;6161294;28;102768;-76
2022/04/10 00:37:25;;;;;;;9.57;3.40;;;;;;;23.41;45.31;93892.97;6159356;28;102782;-77
2022/04/10 00:40:27;;;;;;;8.20;2.87;;;;;;;23.42;45.87;93888.41;6163275;28;102919;-78
2022/04/10 00:43:32;;;;;;;9.43;3.90;;;;;;;23.40;45.61;93879.97;6145653;28;102907;-77
2022/04/10 00:46:35;;;;;;;7.93;3.60;;;;;;;23.40;45.84;93886.09;6134957;28;102843;-77
2022/04/10 00:49:37;;;;;;;9.17;3.63;;;;;;;23.43;46.08;93890.72;6140061;28;104217;-78
2022/04/10 00:52:42;;;;;;;9.40;3.40;;;;;;;23.45;45.69;93890.38;6164032;28;102672;-77
2022/04/10 00:55:44;;;;;;;8.80;3.17;;;;;;;23.45;46.15;93901.84;6162826;28;102704;-78
2022/04/10 00:58:46;;;;;;;13.47;3.57;;;;;;;23.43;45.85;93884.63;6159338;28;102817;-78
2022/04/10 01:01:52;;;;;;;5.43;3.13;;;;;;;23.45;46.44;93887.72;6146983;28;102689;-76
2022/04/10 01:05:11;;;;;;;8.13;3.50;;;;;;;23.42;45.79;93873.16;6163366;28;103272;-76
2022/04/10 01:08:15;;;;;;;4.90;2.90;;;;;;;23.44;45.99;93880.81;6162980;28;102755;-76
2022/04/10 01:11:17;;;;;;;8.00;3.33;;;;;;;23.40;46.21;93872.72;6141883;28;103626;-77
2022/04/10 01:14:20;;;;;;;4.60;2.70;;;;;;;23.44;45.37;93875.50;6142687;28;103115;-77
2022/04/10 01:17:23;;;;;;;5.70;2.73;;;;;;;23.42;45.93;93856.38;6145324;28;102790;-75
2022/04/10 01:20:25;;;;;;;4.87;2.90;;;;;;;23.39;46.04;93852.50;6141383;28;102664;-77
2022/04/10 01:23:28;;;;;;;4.67;2.80;;;;;;;23.40;45.86;93843.38;6163314;28;102711;-77
2022/04/10 01:26:30;;;;;;;5.80;2.60;;;;;;;23.44;46.56;93846.13;6161453;28;103044;-77
2022/04/10 01:29:32;;;;;;;4.17;2.80;;;;;;;23.41;46.88;93836.91;6144586;28;102777;-76
2022/04/10 01:32:35;;;;;;;7.80;2.93;;;;;;;23.41;46.27;93844.91;6158177;28;102789;-76
2022/04/10 01:35:38;;;;;;;5.20;2.70;;;;;;;23.40;46.81;93853.25;6144811;28;103135;-75
2022/04/10 01:38:42;;;;;;;7.83;3.07;;;;;;;23.34;46.97;93836.69;6137876;28;102750;-76
2022/04/10 01:41:48;;;;;;;5.50;2.67;;;;;;;23.33;47.05;93829.81;6162300;28;102750;-77
2022/04/10 01:44:50;;;;;;;6.90;2.83;;;;;;;23.41;47.20;93849.47;6162014;28;103136;-76
2022/04/10 01:47:52;;;;;;;3.90;2.47;;;;;;;23.38;47.76;93848.28;6163341;28;102819;-77
2022/04/10 01:50:55;;;;;;;7.23;2.90;;;;;;;23.39;47.55;93860.50;6163625;28;102796;-76
2022/04/10 01:53:58;;;;;;;6.00;2.80;;;;;;;23.42;47.36;93867.03;6158750;28;103059;-76
2022/04/10 01:57:00;;;;;;;9.10;2.97;;;;;;;23.40;47.65;93874.63;6163607;28;102710;-77
2022/04/10 02:00:04;;;;;;;5.57;3.10;;;;;;;23.39;47.69;93862.41;6144307;28;103196;-76
2022/04/10 02:03:06;;;;;;;5.40;3.00;;;;;;;23.40;47.56;93858.59;6146507;28;103206;-77
2022/04/10 02:06:10;;;;;;;14.30;3.60;;;;;;;23.44;48.20;93859.47;6162531;28;102726;-77
2022/04/10 02:09:12;;;;;;;7.00;2.93;;;;;;;23.42;48.49;93851.81;6144800;28;102844;-75
2022/04/10 02:12:14;;;;;;;5.47;2.80;;;;;;;23.43;48.13;93850.69;6149549;28;102688;-76
2022/04/10 02:15:16;;;;;;;5.60;2.87;;;;;;;23.42;48.29;93856.38;6145733;28;102961;-76
2022/04/10 02:18:18;;;;;;;6.23;2.67;;;;;;;23.42;47.80;93864.38;6140962;28;102736;-75
2022/04/10 02:21:19;;;;;;;6.80;2.43;;;;;;;23.41;48.11;93855.59;6140547;28;102927;-76
2022/04/10 02:24:21;;;;;;;8.50;3.00;;;;;;;23.43;48.12;93857.91;6124841;28;102768;-76
2022/04/10 02:27:23;;;;;;;5.40;3.00;;;;;;;23.40;47.82;93853.25;6141808;28;102680;-76
2022/04/10 02:30:25;;;;;;;7.53;2.60;;;;;;;23.41;47.45;93866.28;6147842;28;102766;-76
2022/04/10 02:33:26;;;;;;;5.13;2.50;;;;;;;23.40;46.48;93845.25;6165004;28;102796;-76
2022/04/10 02:36:29;;;;;;;6.37;2.50;;;;;;;23.42;47.10;93867.03;6148064;28;102685;-77
2022/04/10 02:39:31;;;;;;;6.53;2.37;;;;;;;23.41;47.39;93876.94;6161140;28;102778;-74
2022/04/10 02:42:36;;;;;;;5.10;2.70;;;;;;;23.39;47.23;93876.53;6149278;28;102873;-78
2022/04/10 02:45:38;;;;;;;4.53;2.33;;;;;;;23.36;47.39;93871.88;6145997;28;102979;-77
2022/04/10 02:48:40;;;;;;;8.60;3.03;;;;;;;23.37;47.24;93869.97;6162116;28;102806;-75
2022/04/10 02:51:42;;;;;;;4.40;3.00;;;;;;;23.37;47.21;93875.31;6147256;28;103004;-76
2022/04/10 02:54:47;;;;;;;4.70;2.40;;;;;;;23.32;47.19;93852.28;6147721;28;102790;-78
2022/04/10 02:57:49;;;;;;;5.50;2.40;;;;;;;23.33;47.34;93867.19;6146937;28;102872;-77
2022/04/10 03:00:50;;;;;;;4.60;2.67;;;;;;;23.29;46.16;93867.09;6161463;28;103768;-77
2022/04/10 03:03:53;;;;;;;6.73;2.57;;;;;;;23.31;47.53;93864.09;6166868;28;102791;-76
2022/04/10 03:06:55;;;;;;;4.30;2.90;;;;;;;23.32;48.02;93867.53;6126951;28;103700;-76
2022/04/10 03:09:57;;;;;;;6.23;2.70;;;;;;;23.34;47.35;93867.97;6157333;28;102634;-75
2022/04/10 03:12:59;;;;;;;5.60;2.50;;;;;;;23.35;48.29;93872.97;6149198;28;102881;-77
2022/04/10 03:16:02;;;;;;;7.43;2.93;;;;;;;23.32;47.76;93864.88;6149791;28;102892;-76
2022/04/10 03:19:04;;;;;;;5.20;2.93;;;;;;;23.33;48.03;93898.44;6148802;28;102726;-78
2022/04/10 03:22:06;;;;;;;4.37;2.70;;;;;;;23.23;48.22;93886.34;6157307;28;103185;-77
2022/04/10 03:25:09;;;;;;;3.77;2.27;;;;;;;23.32;47.92;93899.56;6148554;28;104432;-78
2022/04/10 03:28:10;;;;;;;6.30;2.30;;;;;;;23.34;47.80;93902.66;6149035;28;102834;-76
2022/04/10 03:31:12;;;;;;;7.00;2.80;;;;;;;23.33;47.46;93893.09;6165418;28;102703;-76
2022/04/10 03:34:14;;;;;;;4.93;2.30;;;;;;;23.29;47.73;93896.47;6143371;28;102865;-77
2022/04/10 03:37:16;;;;;;;4.30;2.40;;;;;;;23.32;48.32;93931.59;6165364;28;102664;-76
2022/04/10 03:40:18;;;;;;;4.87;2.47;;;;;;;23.30;46.85;93891.91;6146399;28;102797;-75
2022/04/10 03:43:23;;;;;;;4.07;2.47;;;;;;;23.29;48.34;93907.16;6161755;28;102765;-77
2022/04/10 03:46:25;;;;;;;5.57;2.97;;;;;;;23.25;47.81;93892.91;6164862;28;104162;-78
2022/04/10 03:49:26;;;;;;;10.80;3.03;;;;;;;23.27;48.23;93906.69;6165144;28;102792;-77
2022/04/10 03:52:28;;;;;;;4.77;2.53;;;;;;;23.36;48.69;93908.47;6163015;28;102813;-76
2022/04/10 03:55:32;;;;;;;6.87;2.97;;;;;;;23.41;48.60;93913.56;6160749;28;103306;-75
2022/04/10 03:58:34;;;;;;;4.10;2.50;;;;;;;23.34;48.33;93898.09;6164584;28;103070;-77
2022/04/10 04:01:36;;;;;;;7.73;2.90;;;;;;;23.37;47.89;93904.69;6147579;28;102986;-78
2022/04/10 04:04:38;;;;;;;8.53;2.63;;;;;;;23.36;47.85;93889.78;6166512;28;102651;-77
2022/04/10 04:07:40;;;;;;;6.30;2.37;;;;;;;23.38;47.97;93915.03;6143317;28;102763;-76
2022/04/10 04:10:42;;;;;;;6.37;2.90;;;;;;;23.38;48.20;93922.25;6165412;28;102832;-77
2022/04/10 04:13:44;;;;;;;8.77;2.80;;;;;;;23.37;47.72;93936.72;6165110;28;102684;-76
2022/04/10 04:16:46;;;;;;;3.20;2.20;;;;;;;23.37;48.28;93918.03;6142539;28;103452;-77
2022/04/10 04:19:50;;;;;;;4.60;2.33;;;;;;;23.35;47.73;93918.34;6164170;28;102747;-77
2022/04/10 04:22:53;;;;;;;6.00;2.10;;;;;;;23.36;47.95;93925.25;6145391;28;102710;-77
2022/04/10 04:25:55;;;;;;;6.50;2.17;;;;;;;23.37;47.90;93934.03;6146639;28;103179;-76
2022/04/10 04:28:57;;;;;;;4.00;2.10;;;;;;;23.40;47.96;93966.19;6160524;28;102673;-77
2022/04/10 04:32:02;;;;;;;10.03;2.50;;;;;;;23.40;48.24;93963.50;6170835;28;102862;-76
2022/04/10 04:35:05;;;;;;;5.57;2.30;;;;;;;23.38;48.45;93946.28;6149277;28;102838;-78
2022/04/10 04:38:06;;;;;;;5.80;2.43;;;;;;;23.42;48.42;93965.84;6143081;28;103441;-78
2022/04/10 04:41:10;;;;;;;4.93;2.37;;;;;;;23.40;48.76;93955.50;6145360;28;102883;-77
2022/04/10 04:44:12;;;;;;;4.50;2.50;;;;;;;23.41;48.79;93972.28;6149306;28;102652;-78
2022/04/10 04:47:14;;;;;;;6.30;2.73;;;;;;;23.39;48.52;93985.22;6148228;28;102761;-77
2022/04/10 04:50:16;;;;;;;4.50;2.23;;;;;;;23.39;48.45;93987.88;6143085;28;102824;-78
2022/04/10 04:53:17;;;;;;;9.63;3.00;;;;;;;23.39;48.54;93994.00;6164054;28;103092;-77
2022/04/10 04:56:19;;;;;;;5.03;2.67;;;;;;;23.42;49.17;93995.97;6163138;28;102895;-78
2022/04/10 04:59:21;;;;;;;5.80;2.97;;;;;;;23.37;49.21;94011.47;6146778;28;102833;-77
2022/04/10 05:02:23;;;;;;;5.33;2.90;;;;;;;23.40;48.63;94008.13;6159589;28;104129;-77
2022/04/10 05:05:25;;;;;;;6.80;3.33;;;;;;;23.35;49.27;94017.13;6164481;28;103012;-78
2022/04/10 05:08:27;;;;;;;4.03;2.33;;;;;;;23.41;49.00;94025.69;6160929;28;102961;-77
2022/04/10 05:11:29;;;;;;;5.93;2.60;;;;;;;23.35;49.68;94025.13;6142594;28;102756;-77
2022/04/10 05:14:31;;;;;;;4.97;2.60;;;;;;;23.37;49.03;94019.47;6157364;28;102782;-77
2022/04/10 05:17:32;;;;;;;6.53;2.60;;;;;;;23.38;49.28;94021.81;6162584;28;103209;-77
2022/04/10 05:20:34;;;;;;;7.17;2.80;;;;;;;23.38;49.63;94024.47;6156831;28;102825;-78
2022/04/10 05:23:36;;;;;;;7.67;3.00;;;;;;;23.36;49.60;94017.94;6118773;28;103379;-79
2022/04/10 05:26:38;;;;;;;10.40;3.87;;;;;;;23.25;49.59;93997.00;6126524;28;102836;-78
2022/04/10 05:29:40;;;;;;;10.93;3.50;;;;;;;23.33;49.40;93997.22;6129785;28;102842;-77
2022/04/10 05:32:43;;;;;;;5.03;2.83;;;;;;;23.37;49.18;94003.47;6131851;28;102926;-76
2022/04/10 05:35:44;;;;;;;8.10;2.70;;;;;;;23.37;49.40;94014.13;6121021;28;102826;-76
2022/04/10 05:38:47;;;;;;;7.40;2.80;;;;;;;23.35;48.72;94003.00;6159681;28;102803;-77
2022/04/10 05:41:51;;;;;;;4.67;2.57;;;;;;;23.35;49.27;94000.31;6129898;28;103287;-77
2022/04/10 05:45:00;;;;;;;8.97;3.10;;;;;;;23.34;48.85;94017.47;6122583;28;102764;-78
2022/04/10 05:48:02;;;;;;;7.37;2.77;;;;;;;23.36;47.90;94010.69;6126335;28;102751;-77
2022/04/10 05:51:04;;;;;;;7.30;2.87;;;;;;;23.30;48.97;94010.13;6136076;28;102679;-75
2022/04/10 05:54:06;;;;;;;5.13;2.77;;;;;;;23.37;49.01;94024.81;6135266;28;102692;-76
2022/04/10 05:57:07;;;;;;;4.33;2.50;;;;;;;23.38;48.75;94026.38;6133938;28;103427;-75
2022/04/10 06:00:13;;;;;;;4.00;2.73;;;;;;;23.33;48.28;94042.59;6126158;28;103111;-76
2022/04/10 06:03:14;;;;;;;3.00;2.63;;;;;;;23.34;48.46;94057.50;6125513;28;103054;-76
2022/04/10 06:06:18;;;;;;;6.57;2.43;;;;;;;23.37;48.89;94075.53;6126595;28;102843;-79
2022/04/10 06:09:20;;;;;;;7.40;3.00;;;;;;;23.35;48.92;94061.72;6130237;28;102796;-77
2022/04/10 06:12:22;;;;;;;4.70;2.93;;;;;;;23.34;48.81;94073.53;6129694;28;103249;-77
2022/04/10 06:15:23;;;;;;;8.27;3.63;;;;;;;23.34;49.15;94081.53;6132209;28;102777;-75
2022/04/10 06:18:25;;;;;;;6.90;3.00;;;;;;;23.35;49.03;94085.75;6126958;28;102820;-75
2022/04/10 06:21:27;;;;;;;4.47;2.93;;;;;;;23.33;49.03;94083.44;6133505;28;103012;-76
2022/04/10 06:24:29;;;;;;;15.90;3.70;;;;;;;23.47;50.21;94091.06;6137368;28;102758;-76
2022/04/10 06:27:31;;;;;;;14.70;4.30;;;;;;;23.47;49.70;94089.19;6138761;28;103443;-78
2022/04/10 06:30:32;;;;;;;14.07;3.97;;;;;;;23.39;48.60;94084.00;6129741;28;102838;-77
2022/04/10 06:33:34;;;;;;;9.93;4.27;;;;;;;23.35;47.54;94091.88;6137475;28;102804;-75
2022/04/10 06:36:37;;;;;;;12.03;4.70;;;;;;;23.31;48.19;94091.00;6131915;28;102851;-77
2022/04/10 06:39:44;;;;;;;13.53;5.20;;;;;;;23.34;47.87;94084.19;6120583;28;103107;-78
2022/04/10 06:42:46;;;;;;;15.43;4.20;;;;;;;23.29;47.51;94098.56;6141516;28;102832;-79
2022/04/10 06:45:47;;;;;;;17.57;6.20;;;;;;;23.26;47.13;94099.22;6105673;28;102946;-77
2022/04/10 06:48:50;;;;;;;16.80;8.37;;;;;;;23.18;46.45;94092.88;6141597;28;103180;-78
2022/04/10 06:51:51;;;;;;;20.17;8.00;;;;;;;23.21;46.36;94096.78;6135543;28;103233;-77
2022/04/10 06:54:53;;;;;;;21.07;7.57;;;;;;;23.19;46.13;94094.44;6140275;28;103269;-77
2022/04/10 06:57:55;;;;;;;16.47;8.00;;;;;;;23.14;46.15;94089.31;6139166;28;102819;-77
2022/04/10 07:00:56;;;;;;;10.50;7.00;;;;;;;23.15;46.58;94093.53;6141384;28;103220;-76
2022/04/10 07:04:00;;;;;;;11.57;6.73;;;;;;;23.14;45.82;94089.31;6136986;28;103722;-78
2022/04/10 07:07:03;;;;;;;17.90;9.27;;;;;;;23.12;44.95;94106.78;6138058;28;102718;-77
2022/04/10 07:10:05;;;;;;;15.33;7.73;;;;;;;23.13;45.84;94100.34;6140002;28;103146;-78
2022/04/10 07:13:07;;;;;;;14.20;8.27;;;;;;;23.10;45.44;94093.78;6112157;28;103119;-76
2022/04/10 07:16:09;;;;;;;11.60;7.90;;;;;;;23.08;45.32;94101.34;6135059;28;102670;-79
2022/04/10 07:19:11;;;;;;;11.00;7.50;;;;;;;23.05;45.88;94099.34;6154539;28;102789;-78
2022/04/10 07:26:37;;;;;;;13.30;7.97;;;;;;;23.06;45.72;94094.78;6159813;28;102906;-77
2022/04/10 07:29:39;;;;;;;22.43;8.13;;;;;;;23.06;45.00;94097.47;6161609;28;102740;-77
2022/04/10 07:32:40;;;;;;;15.83;7.20;;;;;;;23.06;45.42;94098.25;6145654;28;102730;-78
2022/04/10 07:35:43;;;;;;;12.60;7.70;;;;;;;23.04;44.96;94102.34;6160070;28;103057;-76
2022/04/10 07:38:45;;;;;;;11.77;6.87;;;;;;;23.01;45.19;94109.13;6165895;28;102693;-79
2022/04/10 07:41:47;;;;;;;9.07;6.50;;;;;;;22.87;45.09;94069.47;6162820;28;104344;-77
2022/04/10 07:44:49;;;;;;;17.97;9.23;;;;;;;23.09;44.18;94094.13;6144068;28;102750;-77
2022/04/10 07:47:50;;;;;;;16.73;9.50;;;;;;;23.07;43.99;94099.78;6152037;28;103238;-78
2022/04/10 07:50:52;;;;;;;19.20;8.53;;;;;;;23.08;42.06;94084.56;6133111;28;102722;-76
2022/04/10 07:53:56;;;;;;;39.67;9.00;;;;;;;22.97;41.01;94102.91;6153006;28;102732;-76
2022/04/10 07:56:58;;;;;;;22.17;6.30;;;;;;;22.93;39.76;94097.47;6131694;28;103096;-76
2022/04/10 08:00:00;;;;;;;21.20;5.67;;;;;;;22.82;37.66;94101.66;6136434;28;102747;-78
2022/04/10 08:03:03;;;;;;;5.57;4.43;;;;;;;22.55;35.56;94116.41;6142180;28;102771;-79
2022/04/10 08:06:12;;;;;;;4.03;3.73;;;;;;;22.16;35.65;94098.31;6145857;28;102827;-79
2022/04/10 08:09:14;;;;;;;8.33;4.20;;;;;;;22.14;35.19;94109.28;6156686;28;102916;-80
2022/04/10 08:12:17;;;;;;;9.37;3.60;;;;;;;22.02;35.46;94101.28;6170358;28;103078;-86
2022/04/10 08:15:19;;;;;;;7.13;3.67;;;;;;;22.06;34.46;94113.59;6138755;28;102652;-77
2022/04/10 08:18:21;;;;;;;6.80;2.70;;;;;;;22.17;35.05;94107.84;6153081;28;103428;-80
2022/04/10 08:21:22;;;;;;;2.77;2.53;;;;;;;22.18;34.37;94098.75;6169011;28;102827;-78
2022/04/10 08:24:25;;;;;;;2.80;2.10;;;;;;;22.20;34.58;94105.34;6171313;28;103108;-81
2022/04/10 08:27:29;;;;;;;2.67;2.47;;;;;;;22.02;33.92;94104.72;6151654;28;102755;-79
2022/04/10 08:30:30;;;;;;;5.77;3.00;;;;;;;22.02;33.81;94118.03;6142776;28;103576;-76
2022/04/10 08:33:32;;;;;;;5.17;2.30;;;;;;;22.05;33.29;94113.94;6159389;28;103148;-80
2022/04/10 08:36:35;;;;;;;6.53;2.60;;;;;;;21.98;33.84;94119.78;6156654;28;103064;-80
2022/04/10 08:39:37;;;;;;;3.17;2.40;;;;;;;22.03;33.26;94119.59;6174321;28;102649;-79
2022/04/10 08:42:39;;;;;;;2.80;2.10;;;;;;;22.00;33.14;94130.88;6171522;28;103112;-79
2022/04/10 08:45:44;;;;;;;3.40;1.97;;;;;;;21.96;32.93;94140.63;6158309;28;102846;-81
2022/04/10 08:49:06;;;;;;;4.20;2.20;;;;;;;21.99;33.22;94147.19;6160830;28;102550;-80
2022/04/10 08:52:08;;;;;;;9.67;2.50;;;;;;;21.84;32.52;94153.91;6171881;28;102692;-77
2022/04/10 08:55:10;;;;;;;10.97;2.40;;;;;;;21.84;32.02;94151.22;6170769;28;102907;-76
2022/04/10 08:58:12;;;;;;;20.77;3.77;;;;;;;21.81;33.05;94165.94;6151634;28;102719;-81
2022/04/10 09:01:20;;;;;;;7.40;2.80;;;;;;;21.98;32.62;94158.97;6156564;28;102834;-79
2022/04/10 09:04:23;;;;;;;6.33;2.80;;;;;;;21.89;32.68;94161.72;6162346;28;103145;-81
2022/04/10 09:07:25;;;;;;;5.40;2.60;;;;;;;21.86;32.52;94173.03;6151320;28;102847;-78
2022/04/10 09:10:26;;;;;;;13.20;4.07;;;;;;;21.80;32.59;94169.72;6148540;28;103120;-80
2022/04/10 09:13:34;;;;;;;14.50;3.43;;;;;;;21.84;33.13;94172.53;6151766;28;102813;-80
2022/04/10 09:16:36;;;;;;;5.80;2.40;;;;;;;21.78;33.41;94181.81;6168715;28;103805;-82
2022/04/10 09:19:42;;;;;;;3.47;1.70;;;;;;;21.80;32.79;94179.59;6158279;28;103414;-82
2022/04/10 09:22:43;;;;;;;3.10;2.00;;;;;;;21.75;32.84;94177.91;6156866;28;102859;-80
2022/04/10 09:25:45;;;;;;;4.53;1.63;;;;;;;21.72;32.29;94172.47;6150104;28;103431;-81
2022/04/10 09:28:49;;;;;;;7.53;1.67;;;;;;;21.73;32.02;94182.78;6172646;28;102729;-79
2022/04/10 09:31:54;;;;;;;2.73;1.47;;;;;;;21.74;32.15;94183.56;6143476;28;102540;-76
2022/04/10 09:35:02;;;;;;;7.80;1.63;;;;;;;21.76;32.03;94178.69;6144331;28;103045;-76
2022/04/10 09:38:04;;;;;;;7.30;1.87;;;;;;;21.71;32.07;94187.66;6150182;28;102893;-79
2022/04/10 09:41:13;;;;;;;3.77;1.87;;;;;;;21.75;32.63;94198.44;6170692;28;103301;-77
2022/04/10 09:44:22;;;;;;;3.53;1.40;;;;;;;21.77;32.28;94193.56;6170616;28;102659;-78
2022/04/10 09:47:27;;;;;;;6.67;1.70;;;;;;;21.70;32.15;94188.75;6165267;28;102659;-77
2022/04/10 09:50:32;;;;;;;10.60;1.90;;;;;;;21.70;31.58;94180.00;6152968;28;102754;-79
2022/04/10 09:53:34;;;;;;;8.23;1.80;;;;;;;21.68;31.81;94176.88;6153325;28;102824;-80
2022/04/10 09:56:37;;;;;;;4.40;1.50;;;;;;;21.66;32.34;94179.06;6154802;28;102686;-78
2022/04/10 09:59:44;;;;;;;2.60;1.27;;;;;;;21.71;32.38;94194.88;6168140;28;102698;-77
2022/04/10 10:02:46;;;;;;;3.00;1.20;;;;;;;21.68;32.75;94182.22;6140602;28;103183;-79
2022/04/10 10:05:53;;;;;;;2.07;1.43;;;;;;;21.56;32.82;94182.13;6172714;28;102618;-83
2022/04/10 10:08:55;;;;;;;2.50;1.00;;;;;;;21.55;32.97;94199.19;6170093;28;103085;-82
2022/04/10 10:12:03;;;;;;;2.07;1.50;;;;;;;21.57;32.83;94189.78;6153839;28;103123;-77
2022/04/10 10:15:06;;;;;;;3.03;1.30;;;;;;;21.53;33.21;94186.22;6135791;28;102679;-80
2022/04/10 10:18:13;;;;;;;1.57;1.30;;;;;;;21.54;33.03;94195.75;6133694;28;102815;-78
2022/04/10 10:21:15;;;;;;;2.73;1.60;;;;;;;21.54;33.01;94190.44;6138208;28;102689;-77
2022/04/10 10:24:20;;;;;;;1.60;1.50;;;;;;;21.57;33.34;94197.00;6157070;28;102684;-80
2022/04/10 10:27:36;;;;;;;2.03;1.10;;;;;;;21.47;33.23;94184.81;6157079;28;103254;-80
2022/04/10 10:31:05;;;;;;;1.40;1.30;;;;;;;21.54;33.13;94185.09;6154899;28;103031;-79
2022/04/10 10:34:09;;;;;;;2.87;1.50;;;;;;;21.69;33.30;94189.09;6152034;28;103202;-78
2022/04/10 10:37:13;;;;;;;2.63;2.00;;;;;;;21.75;33.16;94187.78;6173286;28;102674;-78
2022/04/10 10:40:20;;;;;;;2.30;1.63;;;;;;;21.76;33.29;94181.34;6155092;28;102750;-78
2022/04/10 10:43:25;;;;;;;4.97;2.47;;;;;;;21.83;33.65;94176.31;6169458;28;102701;-80
2022/04/10 10:46:34;;;;;;;7.37;3.10;;;;;;;21.95;33.78;94178.25;6156115;28;103106;-79
2022/04/10 10:49:50;;;;;;;4.10;2.80;;;;;;;22.00;33.58;94178.84;6156661;28;102765;-80
2022/04/10 10:53:06;;;;;;;4.43;2.30;;;;;;;22.01;33.74;94175.09;6174693;28;103162;-78
2022/04/10 10:56:27;;;;;;;55.47;19.70;;;;;;;21.99;34.13;94177.28;6142329;28;103238;-79
2022/04/10 10:59:45;;;;;;;27.03;10.00;;;;;;;22.08;34.01;94164.69;6173915;28;103391;-79
2022/04/10 11:02:53;;;;;;;20.43;10.00;;;;;;;22.09;33.90;94162.78;6154023;28;102772;-77
2022/04/10 11:06:09;;;;;;;20.23;9.47;;;;;;;22.25;34.00;94173.63;6132344;28;104595;-76
2022/04/10 11:09:22;;;;;;;22.97;9.10;;;;;;;22.17;34.26;94158.47;6150490;28;103105;-76
2022/04/10 11:12:49;;;;;;;16.23;8.53;;;;;;;22.17;34.07;94161.94;6155218;28;102760;-75
2022/04/10 11:15:55;;;;;;;14.63;8.03;;;;;;;22.18;33.86;94162.69;6148518;28;102857;-78
2022/04/10 11:19:02;;;;;;;13.73;7.37;;;;;;;22.15;34.53;94148.16;6137261;28;103147;-76
2022/04/10 11:22:05;;;;;;;12.27;6.43;;;;;;;22.17;33.91;94155.81;6154779;28;102806;-78
2022/04/10 11:25:08;;;;;;;12.03;6.50;;;;;;;22.15;33.93;94158.81;6168760;28;104303;-80
2022/04/10 11:28:12;;;;;;;13.20;7.10;;;;;;;22.17;34.09;94161.94;6138630;28;103094;-77
2022/04/10 11:31:31;;;;;;;8.57;6.10;;;;;;;22.15;33.91;94163.38;6153818;28;102846;-76
2022/04/10 11:34:41;;;;;;;8.53;6.20;;;;;;;22.11;33.81;94153.38;6145387;28;102919;-77
2022/04/10 11:37:47;;;;;;;7.37;4.97;;;;;;;22.09;34.22;94154.81;6142958;28;102737;-79
2022/04/10 11:40:53;;;;;;;6.80;5.10;;;;;;;22.06;33.28;94150.91;6144405;28;103058;-77
2022/04/10 11:43:55;;;;;;;6.87;4.83;;;;;;;22.06;33.94;94153.56;6138593;28;102817;-77
2022/04/10 11:47:01;;;;;;;5.53;4.60;;;;;;;22.06;33.57;94150.13;6159582;28;102697;-78
2022/04/10 11:50:06;;;;;;;6.43;3.90;;;;;;;22.01;33.83;94159.13;6144850;28;103227;-78
2022/04/10 11:53:13;;;;;;;6.40;4.37;;;;;;;22.04;33.71;94152.34;6157301;28;102954;-75
2022/04/10 11:56:15;;;;;;;4.80;4.23;;;;;;;22.06;33.54;94166.13;6172866;28;102709;-77
2022/04/10 11:59:18;;;;;;;6.40;4.40;;;;;;;22.01;33.78;94167.09;6156092;28;103055;-77
2022/04/10 12:02:20;;;;;;;9.20;4.17;;;;;;;21.94;33.84;94155.41;6133327;28;102661;-78
2022/04/10 12:05:30;;;;;;;5.77;3.50;;;;;;;21.99;33.97;94150.63;6146781;28;103157;-79
2022/04/10 12:08:32;;;;;;;4.03;3.63;;;;;;;22.03;34.22;94158.78;6142156;28;102907;-80
2022/04/10 12:11:41;;;;;;;6.07;3.93;;;;;;;22.19;34.39;94158.97;6138410;28;102726;-77
2022/04/10 12:14:44;;;;;;;5.83;3.47;;;;;;;22.21;34.48;94151.41;6157969;28;102689;-79
2022/04/10 12:17:47;;;;;;;6.17;3.93;;;;;;;22.30;34.65;94160.09;6135992;28;102765;-80
2022/04/10 12:21:08;;;;;;;5.53;3.80;;;;;;;22.28;34.83;94148.97;6155182;28;102741;-79
2022/04/10 12:24:20;;;;;;;8.37;4.10;;;;;;;22.31;34.71;94140.31;6158785;28;102685;-80
2022/04/10 12:27:23;;;;;;;4.23;3.20;;;;;;;22.32;35.18;94149.88;6168619;28;102839;-79
2022/04/10 12:30:28;;;;;;;4.00;3.50;;;;;;;22.36;34.94;94148.13;6161098;28;102742;-78
2022/04/10 12:33:31;;;;;;;3.73;3.10;;;;;;;22.19;35.12;94132.31;6161315;28;102787;-79
2022/04/10 12:36:33;;;;;;;5.67;4.20;;;;;;;22.31;35.79;94130.44;6179618;28;102639;-77
2022/04/10 12:39:36;;;;;;;5.73;3.63;;;;;;;22.28;34.08;94130.31;6160153;28;102897;-76
2022/04/10 12:42:43;;;;;;;14.40;7.87;;;;;;;22.27;35.55;94128.78;6159187;28;102777;-78
2022/04/10 12:45:45;;;;;;;17.00;8.00;;;;;;;22.29;35.01;94124.66;6154982;28;102689;-77
2022/04/10 12:48:49;;;;;;;13.07;6.80;;;;;;;22.29;35.30;94127.31;6159067;28;102728;-79
2022/04/10 12:52:03;;;;;;;13.00;7.40;;;;;;;22.32;35.80;94160.53;6157257;28;102788;-78
2022/04/10 12:55:23;;;;;;;13.70;7.73;;;;;;;22.32;35.39;94189.84;6162382;28;102952;-78
2022/04/10 12:58:47;;;;;;;13.13;7.37;;;;;;;22.31;35.58;94194.41;6148716;28;102775;-76
2022/04/10 13:01:54;;;;;;;13.23;7.33;;;;;;;22.29;35.73;94177.97;6153905;28;102809;-78
2022/04/10 13:05:01;;;;;;;11.13;6.97;;;;;;;22.31;35.65;94174.97;6160179;28;103130;-81
2022/04/10 13:08:07;;;;;;;11.23;6.00;;;;;;;22.30;35.69;94160.09;6161416;28;102694;-78
2022/04/10 13:11:11;;;;;;;11.10;6.73;;;;;;;22.27;35.79;94156.19;6164423;28;103243;-78
2022/04/10 13:14:32;;;;;;;9.00;6.30;;;;;;;22.31;36.04;94172.31;6166100;28;102682;-80
2022/04/10 13:17:36;;;;;;;7.87;5.77;;;;;;;22.29;35.78;94169.97;6180132;28;102665;-78
2022/04/10 13:20:39;;;;;;;10.03;5.53;;;;;;;22.27;35.83;94169.53;6156269;28;102700;-78
2022/04/10 13:23:41;;;;;;;10.60;5.93;;;;;;;22.20;35.98;94163.19;6161509;28;102804;-78
2022/04/10 13:26:45;;;;;;;10.77;6.37;;;;;;;22.27;36.15;94168.75;6161575;28;102634;-79
2022/04/10 13:29:46;;;;;;;9.87;5.33;;;;;;;22.30;35.91;94182.19;6158611;28;102678;-77
2022/04/10 13:32:48;;;;;;;9.90;6.17;;;;;;;22.31;35.84;94185.63;6158668;28;102811;-78
2022/04/10 13:35:52;;;;;;;10.97;6.73;;;;;;;22.27;36.38;94179.41;6177139;28;102645;-77
2022/04/10 13:38:54;;;;;;;8.53;5.40;;;;;;;22.29;36.29;94187.84;6157792;28;102798;-78
2022/04/10 13:41:56;;;;;;;8.40;5.83;;;;;;;22.27;36.32;94198.06;6148023;28;102698;-78
2022/04/10 13:44:59;;;;;;;8.30;5.20;;;;;;;22.25;36.10;94192.28;6133669;28;102771;-78
2022/04/10 13:48:01;;;;;;;8.37;5.13;;;;;;;22.35;36.36;94199.88;6153931;28;102861;-77
2022/04/10 13:51:03;;;;;;;11.43;5.87;;;;;;;22.29;36.28;94199.28;6151168;28;103131;-77
2022/04/10 13:54:06;;;;;;;7.40;5.37;;;;;;;22.30;36.54;94213.41;6152303;28;102742;-78
2022/04/10 13:57:08;;;;;;;7.70;5.57;;;;;;;22.32;36.11;94209.28;6150813;28;103193;-77
2022/04/10 14:00:11;;;;;;;11.10;5.70;;;;;;;22.33;36.87;94210.06;6147903;28;102956;-79
2022/04/10 14:03:13;;;;;;;6.67;4.60;;;;;;;22.32;36.95;94205.84;6148631;28;103079;-79
2022/04/10 14:06:15;;;;;;;6.63;4.63;;;;;;;22.34;36.89;94208.97;6164176;28;103062;-78
2022/04/10 14:09:17;;;;;;;8.20;5.07;;;;;;;22.25;37.47;94187.72;6140142;28;102888;-77
2022/04/10 14:12:19;;;;;;;3.60;3.30;;;;;;;22.25;35.84;94206.38;6147638;28;102662;-80
2022/04/10 14:15:22;;;;;;;4.03;3.23;;;;;;;22.19;33.87;94193.59;6152433;28;103026;-79
2022/04/10 14:18:24;;;;;;;4.70;3.80;;;;;;;22.20;33.77;94206.59;6136766;28;102802;-79